createdAt,value
2019-03-13T00:01:45.600Z,7.30
2019-03-13T00:04:34.396Z,7.34
2019-03-13T00:07:22.625Z,7.34
2019-03-13T00:10:11.739Z,7.35
2019-03-13T00:13:00.624Z,7.26
2019-03-13T00:15:50.037Z,7.29
2019-03-13T00:18:39.622Z,7.29
2019-03-13T00:21:27.633Z,7.27
2019-03-13T00:24:16.493Z,7.28
2019-03-13T00:27:05.042Z,7.29
2019-03-13T00:29:53.959Z,7.32
2019-03-13T00:32:42.689Z,7.37
2019-03-13T00:35:31.730Z,7.45
2019-03-13T00:38:20.133Z,7.50
2019-03-13T00:41:08.678Z,7.54
2019-03-13T00:43:57.591Z,7.57
2019-03-13T00:46:46.328Z,7.58
2019-03-13T00:49:34.940Z,7.58
2019-03-13T00:52:23.690Z,7.55
2019-03-13T00:55:12.478Z,7.48
2019-03-13T00:58:00.860Z,7.37
2019-03-13T01:01:08.741Z,7.34
2019-03-13T01:04:19.849Z,7.31
2019-03-13T01:07:10.568Z,7.33
2019-03-13T01:09:59.775Z,7.50
2019-03-13T01:12:47.846Z,7.85
2019-03-13T01:15:35.996Z,8.26
2019-03-13T01:18:24.462Z,8.64
2019-03-13T01:21:12.940Z,8.92
2019-03-13T01:24:01.750Z,9.18
2019-03-13T01:26:50.370Z,9.42
2019-03-13T01:29:38.832Z,9.67
2019-03-13T01:32:53.175Z,10.07
2019-03-13T01:35:51.823Z,10.24
2019-03-13T01:38:40.413Z,10.41
2019-03-13T01:41:29.134Z,10.41
2019-03-13T01:44:17.680Z,10.36
2019-03-13T01:47:05.944Z,10.36
2019-03-13T01:49:54.887Z,10.43
2019-03-13T01:52:43.857Z,10.40
2019-03-13T01:55:31.856Z,10.40
2019-03-13T01:58:20.332Z,10.38
2019-03-13T02:01:09.384Z,10.36
2019-03-13T02:03:57.965Z,10.34
2019-03-13T02:06:46.686Z,10.30
2019-03-13T02:09:35.584Z,10.20
2019-03-13T02:12:24.379Z,10.14
2019-03-13T02:15:15.453Z,10.07
2019-03-13T02:18:03.791Z,10.04
2019-03-13T02:20:53.038Z,10.01
2019-03-13T02:23:42.117Z,9.96
2019-03-13T02:26:30.294Z,9.96
2019-03-13T02:29:18.802Z,9.88
2019-03-13T02:32:07.511Z,9.84
2019-03-13T02:34:56.159Z,9.78
2019-03-13T02:37:44.928Z,9.72
2019-03-13T02:40:33.629Z,9.62
2019-03-13T02:43:22.298Z,9.55
2019-03-13T02:46:11.120Z,9.48
2019-03-13T02:49:00.181Z,9.39
2019-03-13T02:51:49.032Z,9.35
2019-03-13T02:54:37.598Z,9.30
2019-03-13T02:57:26.132Z,9.08
2019-03-13T03:00:17.022Z,8.91
2019-03-13T03:03:07.691Z,8.70
2019-03-13T03:05:57.555Z,8.43
2019-03-13T03:08:46.377Z,8.24
2019-03-13T03:11:35.158Z,8.16
2019-03-13T03:14:23.905Z,8.06
2019-03-13T03:17:12.687Z,7.92
2019-03-13T03:20:01.322Z,7.68
2019-03-13T03:22:50.609Z,7.33
2019-03-13T03:25:38.658Z,7.21
2019-03-13T03:28:27.266Z,7.09
2019-03-13T03:31:15.934Z,6.98
2019-03-13T03:34:05.160Z,6.91
2019-03-13T03:36:53.598Z,6.96
2019-03-13T03:39:41.903Z,6.82
2019-03-13T03:42:30.543Z,6.75
2019-03-13T03:45:19.484Z,6.69
2019-03-13T03:48:08.554Z,6.59
2019-03-13T03:50:57.209Z,6.51
2019-03-13T03:53:46.113Z,6.49
2019-03-13T03:56:34.322Z,6.43
2019-03-13T03:59:22.585Z,6.43
2019-03-13T04:02:11.305Z,6.41
2019-03-13T04:05:00.080Z,6.42
2019-03-13T04:07:48.596Z,6.44
2019-03-13T04:10:38.404Z,6.46
2019-03-13T04:13:27.128Z,6.52
2019-03-13T04:16:15.315Z,6.55
2019-03-13T04:19:04.187Z,6.47
2019-03-13T04:21:52.786Z,6.41
2019-03-13T04:24:41.527Z,6.37
2019-03-13T04:27:30.395Z,6.31
2019-03-13T04:30:19.427Z,6.26
2019-03-13T04:33:08.263Z,6.34
2019-03-13T04:35:56.264Z,6.27
2019-03-13T04:38:44.905Z,6.23
2019-03-13T04:41:33.305Z,6.20
2019-03-13T04:44:21.739Z,6.17
2019-03-13T04:47:10.377Z,6.17
2019-03-13T04:49:58.873Z,6.07
2019-03-13T04:52:47.695Z,6.03
2019-03-13T04:55:36.284Z,6.01
2019-03-13T04:58:24.811Z,5.98
2019-03-13T05:01:13.847Z,5.90
2019-03-13T05:04:02.479Z,5.83
2019-03-13T05:06:51.145Z,5.85
2019-03-13T05:09:40.516Z,5.84
2019-03-13T05:12:29.675Z,5.80
2019-03-13T05:15:17.701Z,5.80
2019-03-13T05:18:06.581Z,5.79
2019-03-13T05:20:55.413Z,5.82
2019-03-13T05:23:43.995Z,5.76
2019-03-13T05:26:32.299Z,5.75
2019-03-13T05:29:20.850Z,5.76
2019-03-13T05:32:09.525Z,5.77
2019-03-13T05:34:58.667Z,5.75
2019-03-13T05:37:47.344Z,5.76
2019-03-13T05:40:36.517Z,5.80
2019-03-13T05:43:25.301Z,5.82
2019-03-13T05:46:13.717Z,5.84
2019-03-13T05:49:02.175Z,5.89
2019-03-13T05:51:50.565Z,5.92
2019-03-13T05:54:39.647Z,5.91
2019-03-13T05:57:28.272Z,5.90
2019-03-13T06:00:18.375Z,5.91
2019-03-13T06:03:06.585Z,5.87
2019-03-13T06:05:55.114Z,5.73
2019-03-13T06:08:43.821Z,5.58
2019-03-13T06:11:32.218Z,5.43
2019-03-13T06:14:20.821Z,5.36
2019-03-13T06:17:09.230Z,5.22
2019-03-13T06:19:58.132Z,5.03
2019-03-13T06:22:47.338Z,4.91
2019-03-13T06:25:36.088Z,4.85
2019-03-13T06:28:24.970Z,4.78
2019-03-13T06:31:13.677Z,4.80
2019-03-13T06:34:02.338Z,4.72
2019-03-13T06:36:51.298Z,4.61
2019-03-13T06:39:40.463Z,4.64
2019-03-13T06:42:29.007Z,4.69
2019-03-13T06:45:17.950Z,4.59
2019-03-13T06:48:06.354Z,4.59
2019-03-13T06:50:55.042Z,4.62
2019-03-13T06:53:43.116Z,4.66
2019-03-13T06:56:31.151Z,4.60
2019-03-13T06:59:27.485Z,4.65
2019-03-13T07:02:23.958Z,4.69
2019-03-13T07:05:27.143Z,4.79
2019-03-13T07:08:25.348Z,4.88
2019-03-13T07:11:45.746Z,5.03
2019-03-13T07:15:05.190Z,5.05
2019-03-13T07:18:21.253Z,5.06
2019-03-13T07:21:28.349Z,5.17
2019-03-13T07:24:34.837Z,5.21
2019-03-13T07:27:35.517Z,5.28
2019-03-13T07:30:48.746Z,5.38
2019-03-13T07:34:00.110Z,5.40
2019-03-13T07:37:08.111Z,5.40
2019-03-13T07:40:06.671Z,5.46
2019-03-13T07:43:11.884Z,5.43
2019-03-13T07:46:19.332Z,5.37
2019-03-13T07:49:27.079Z,5.44
2019-03-13T07:52:33.769Z,5.49
2019-03-13T07:55:40.171Z,5.58
2019-03-13T07:58:44.278Z,5.64
2019-03-13T08:02:01.360Z,5.72
2019-03-13T08:05:07.808Z,5.81
2019-03-13T08:08:28.167Z,5.89
2019-03-13T08:11:27.346Z,6.02
2019-03-13T08:14:37.228Z,6.01
2019-03-13T08:17:38.485Z,5.97
2019-03-13T08:20:59.058Z,5.96
2019-03-13T08:24:02.881Z,6.01
2019-03-13T08:27:25.865Z,6.06
2019-03-13T08:30:45.183Z,6.20
2019-03-13T08:33:51.579Z,6.22
2019-03-13T08:36:55.070Z,6.24
2019-03-13T08:40:01.965Z,6.35
2019-03-13T08:43:08.246Z,6.41
2019-03-13T08:46:14.581Z,6.52
2019-03-13T08:49:24.636Z,6.56
2019-03-13T08:52:34.986Z,6.47
2019-03-13T08:55:42.413Z,6.60
2019-03-13T08:58:55.652Z,6.82
2019-03-13T09:01:56.551Z,6.96
2019-03-13T09:04:55.567Z,7.11
2019-03-13T09:08:18.775Z,7.43
2019-03-13T09:11:28.696Z,7.44
2019-03-13T09:14:37.257Z,7.48
2019-03-13T09:17:42.947Z,7.45
2019-03-13T09:20:38.519Z,7.39
2019-03-13T09:23:58.622Z,7.45
2019-03-13T09:27:18.203Z,7.52
2019-03-13T09:30:41.474Z,7.58
2019-03-13T09:33:47.338Z,7.51
2019-03-13T09:36:48.886Z,7.55
2019-03-13T09:39:59.755Z,7.67
2019-03-13T09:43:05.652Z,7.87
2019-03-13T09:46:12.830Z,8.08
2019-03-13T09:49:30.297Z,8.14
2019-03-13T09:52:41.242Z,8.02
2019-03-13T09:55:48.540Z,8.11
2019-03-13T09:59:12.170Z,7.98
2019-03-13T10:02:18.885Z,8.15
2019-03-13T10:05:23.649Z,8.32
2019-03-13T10:08:31.488Z,8.22
2019-03-13T10:11:28.696Z,8.06
2019-03-13T10:14:39.525Z,7.92
2019-03-13T10:17:45.263Z,7.94
2019-03-13T10:20:51.849Z,7.82
2019-03-13T10:23:48.448Z,7.77
2019-03-13T10:26:55.893Z,7.85
2019-03-13T10:30:07.684Z,7.74
2019-03-13T10:33:02.739Z,7.55
2019-03-13T10:36:29.270Z,7.64
2019-03-13T10:39:46.582Z,7.75
2019-03-13T10:42:41.736Z,7.77
2019-03-13T10:45:38.455Z,8.06
2019-03-13T10:48:55.657Z,8.18
2019-03-13T10:52:06.301Z,8.20
2019-03-13T10:55:20.605Z,8.32
2019-03-13T10:58:27.258Z,8.49
2019-03-13T11:01:20.944Z,8.59
2019-03-13T11:04:28.147Z,8.63
2019-03-13T11:07:35.518Z,8.80
2019-03-13T11:10:43.027Z,8.74
2019-03-13T11:13:39.568Z,8.56
2019-03-13T11:16:46.874Z,8.45
2019-03-13T11:19:41.407Z,8.32
2019-03-13T11:22:51.711Z,8.13
2019-03-13T11:26:05.267Z,7.95
2019-03-13T11:29:13.027Z,7.12
2019-03-13T11:32:20.766Z,5.89
2019-03-13T11:35:28.852Z,5.73
2019-03-13T11:38:35.561Z,5.77
2019-03-13T11:41:51.846Z,5.97
2019-03-13T11:45:14.737Z,6.28
2019-03-13T11:48:15.804Z,6.69
2019-03-13T11:51:29.818Z,7.04
2019-03-13T11:54:47.381Z,7.13
2019-03-13T11:57:54.163Z,6.83
2019-03-13T12:01:00.107Z,6.97
2019-03-13T12:04:03.734Z,7.16
2019-03-13T12:06:59.753Z,7.41
2019-03-13T12:09:58.767Z,7.58
2019-03-13T12:13:01.780Z,7.60
2019-03-13T12:16:03.845Z,7.68
2019-03-13T12:19:17.633Z,7.95
2019-03-13T12:22:26.929Z,8.51
2019-03-13T12:25:30.387Z,8.72
2019-03-13T12:28:29.632Z,8.59
2019-03-13T12:31:56.559Z,8.66
2019-03-13T12:35:04.150Z,8.57
2019-03-13T12:37:59.957Z,8.31
2019-03-13T12:41:07.119Z,8.09
2019-03-13T12:44:15.125Z,8.16
2019-03-13T12:47:25.503Z,8.46
2019-03-13T12:50:39.339Z,8.53
2019-03-13T12:53:37.460Z,8.42
2019-03-13T12:56:44.549Z,8.43
2019-03-13T12:59:50.999Z,8.61
2019-03-13T13:02:55.332Z,8.45
2019-03-13T13:06:02.122Z,8.53
2019-03-13T13:09:21.403Z,8.74
2019-03-13T13:12:29.182Z,8.51
2019-03-13T13:15:34.969Z,8.88
2019-03-13T13:18:48.839Z,9.01
2019-03-13T13:21:37.573Z,8.81
2019-03-13T13:24:26.260Z,8.67
2019-03-13T13:27:14.504Z,8.80
2019-03-13T13:30:02.821Z,8.63
2019-03-13T13:32:51.161Z,8.50
2019-03-13T13:35:39.885Z,8.53
2019-03-13T13:38:28.275Z,8.86
2019-03-13T13:41:17.695Z,9.29
2019-03-13T13:44:06.865Z,9.46
2019-03-13T13:46:55.799Z,8.96
2019-03-13T13:49:44.519Z,8.57
2019-03-13T13:52:32.875Z,8.23
2019-03-13T13:55:22.023Z,7.94
2019-03-13T13:58:10.734Z,7.87
2019-03-13T14:01:00.761Z,7.54
2019-03-13T14:04:19.835Z,7.43
2019-03-13T14:14:56.891Z,10.10
2019-03-13T14:17:45.635Z,10.93
2019-03-13T14:20:34.814Z,11.65
2019-03-13T14:23:23.399Z,11.87
2019-03-13T14:26:11.552Z,11.80
2019-03-13T14:29:00.558Z,10.75
2019-03-13T14:31:49.065Z,10.54
2019-03-13T14:34:37.925Z,10.14
2019-03-13T14:37:26.646Z,9.75
2019-03-13T14:40:15.443Z,9.85
2019-03-13T14:43:03.914Z,9.40
2019-03-13T14:45:52.217Z,8.48
2019-03-13T14:48:40.778Z,7.93
2019-03-13T14:51:28.919Z,7.75
2019-03-13T14:54:17.319Z,7.67
2019-03-13T14:57:05.832Z,7.48
2019-03-13T14:59:54.516Z,7.17
2019-03-13T15:02:43.594Z,6.74
2019-03-13T15:05:32.829Z,6.91
2019-03-13T15:08:21.598Z,6.82
2019-03-13T15:11:11.730Z,6.77
2019-03-13T15:14:00.308Z,6.55
2019-03-13T15:16:49.113Z,6.56
2019-03-13T15:19:37.284Z,6.70
2019-03-13T15:22:25.723Z,6.71
2019-03-13T15:25:16.438Z,6.68
2019-03-13T15:28:05.421Z,6.67
2019-03-13T15:30:54.562Z,6.78
2019-03-13T15:33:43.384Z,7.34
2019-03-13T15:36:31.945Z,8.41
2019-03-13T15:39:21.048Z,9.31
2019-03-13T15:42:09.198Z,9.60
2019-03-13T15:44:58.660Z,9.46
2019-03-13T15:47:47.532Z,8.96
2019-03-13T15:50:36.603Z,8.88
2019-03-13T15:53:25.628Z,8.56
2019-03-13T15:56:14.581Z,8.21
2019-03-13T15:59:03.303Z,8.04
2019-03-13T16:01:52.309Z,7.98
2019-03-13T16:04:41.630Z,7.98
2019-03-13T16:07:30.008Z,7.89
2019-03-13T16:10:19.074Z,7.84
2019-03-13T16:13:08.035Z,7.87
2019-03-13T16:15:56.912Z,7.79
2019-03-13T16:18:45.255Z,7.71
2019-03-13T16:21:34.192Z,7.48
2019-03-13T16:24:22.989Z,7.29
2019-03-13T16:27:12.232Z,7.34
2019-03-13T16:30:01.105Z,7.28
2019-03-13T16:32:50.363Z,7.18
2019-03-13T16:35:39.160Z,7.11
2019-03-13T16:38:28.129Z,7.12
2019-03-13T16:41:17.373Z,7.11
2019-03-13T16:44:06.027Z,7.01
2019-03-13T16:46:54.916Z,6.98
2019-03-13T16:49:43.472Z,6.68
2019-03-13T16:52:31.775Z,6.37
2019-03-13T16:55:20.797Z,6.27
2019-03-13T16:58:09.859Z,6.17
2019-03-13T17:00:58.492Z,6.15
2019-03-13T17:03:47.701Z,6.09
2019-03-13T17:06:36.624Z,5.97
2019-03-13T17:09:25.596Z,5.86
2019-03-13T17:12:14.681Z,5.87
2019-03-13T17:15:02.915Z,5.81
2019-03-13T17:17:51.721Z,5.75
2019-03-13T17:20:40.519Z,5.67
2019-03-13T17:23:29.330Z,5.70
2019-03-13T17:26:18.330Z,5.66
2019-03-13T17:29:07.711Z,5.69
2019-03-13T17:31:56.132Z,5.61
2019-03-13T17:34:44.966Z,5.55
2019-03-13T17:37:33.991Z,5.51
2019-03-13T17:40:23.689Z,5.29
2019-03-13T17:43:13.012Z,5.30
2019-03-13T17:46:01.659Z,5.29
2019-03-13T17:48:50.334Z,5.26
2019-03-13T17:51:39.236Z,5.24
2019-03-13T17:54:27.752Z,5.17
2019-03-13T17:57:16.610Z,5.18
2019-03-13T18:00:07.113Z,5.20
2019-03-13T18:02:55.721Z,5.16
2019-03-13T18:05:44.171Z,5.17
2019-03-13T18:08:32.982Z,5.07
2019-03-13T18:11:22.738Z,5.06
2019-03-13T18:14:12.062Z,5.06
2019-03-13T18:17:01.232Z,5.04
2019-03-13T18:19:50.361Z,4.98
2019-03-13T18:22:38.823Z,4.99
2019-03-13T18:25:27.769Z,4.91
2019-03-13T18:28:16.824Z,4.82
2019-03-13T18:31:05.793Z,4.86
2019-03-13T18:33:56.822Z,4.89
2019-03-13T18:36:54.431Z,4.89
2019-03-13T18:39:44.454Z,4.87
2019-03-13T18:42:34.176Z,4.91
2019-03-13T18:45:24.641Z,4.92
2019-03-13T18:48:13.832Z,4.89
2019-03-13T18:51:03.039Z,4.89
2019-03-13T18:53:51.291Z,4.88
2019-03-13T18:56:40.355Z,4.93
2019-03-13T18:59:30.585Z,4.90
2019-03-13T19:02:19.191Z,4.87
2019-03-13T19:05:08.909Z,4.86
2019-03-13T19:07:57.639Z,4.84
2019-03-13T19:10:46.073Z,4.82
2019-03-13T19:13:35.222Z,4.86
2019-03-13T19:16:23.602Z,4.91
2019-03-13T19:19:11.827Z,4.88
2019-03-13T19:22:01.018Z,4.87
2019-03-13T19:24:49.147Z,4.87
2019-03-13T19:27:38.447Z,4.82
2019-03-13T19:30:30.316Z,4.79
2019-03-13T19:33:19.225Z,4.89
2019-03-13T19:36:08.131Z,4.94
2019-03-13T19:38:56.389Z,4.97
2019-03-13T19:41:45.647Z,4.99
2019-03-13T19:44:35.121Z,5.01
2019-03-13T19:47:24.366Z,5.02
2019-03-13T19:50:13.790Z,4.99
2019-03-13T19:53:02.663Z,5.02
2019-03-13T19:55:50.895Z,5.01
2019-03-13T19:58:40.283Z,4.97
2019-03-13T20:01:29.743Z,4.96
2019-03-13T20:04:17.961Z,4.93
2019-03-13T20:07:06.849Z,4.99
2019-03-13T20:09:56.668Z,5.02
2019-03-13T20:12:45.202Z,5.05
2019-03-13T20:15:33.821Z,5.10
2019-03-13T20:18:22.807Z,5.12
2019-03-13T20:21:11.106Z,5.11
2019-03-13T20:24:00.316Z,5.11
2019-03-13T20:26:48.901Z,5.17
2019-03-13T20:29:37.994Z,5.23
2019-03-13T20:32:26.263Z,5.22
2019-03-13T20:35:14.915Z,5.27
2019-03-13T20:38:05.355Z,5.26
2019-03-13T20:40:54.597Z,5.23
2019-03-13T20:43:46.115Z,5.27
2019-03-13T20:46:35.164Z,5.27
2019-03-13T20:49:24.207Z,5.30
2019-03-13T20:52:13.318Z,5.37
2019-03-13T20:55:02.335Z,5.42
2019-03-13T20:57:51.315Z,5.41
2019-03-13T21:00:40.851Z,5.44
2019-03-13T21:03:29.694Z,5.37
2019-03-13T21:06:19.083Z,5.35
2019-03-13T21:09:08.513Z,5.33
2019-03-13T21:11:56.987Z,5.33
2019-03-13T21:14:45.734Z,5.31
2019-03-13T21:17:34.381Z,5.34
2019-03-13T21:20:23.559Z,5.36
2019-03-13T21:23:11.982Z,5.25
2019-03-13T21:26:01.051Z,5.13
2019-03-13T21:28:49.317Z,5.05
2019-03-13T21:31:38.028Z,4.87
2019-03-13T21:34:28.482Z,4.87
2019-03-13T21:37:16.673Z,4.85
2019-03-13T21:40:06.265Z,4.88
2019-03-13T21:42:55.491Z,4.88
2019-03-13T21:45:46.810Z,4.84
2019-03-13T21:48:35.605Z,4.77
2019-03-13T21:51:24.439Z,4.70
2019-03-13T21:54:13.829Z,4.73
2019-03-13T21:57:02.655Z,4.70
2019-03-13T21:59:51.543Z,4.71
2019-03-13T22:02:39.960Z,4.70
2019-03-13T22:05:28.242Z,4.69
2019-03-13T22:08:16.830Z,4.71
2019-03-13T22:11:05.525Z,4.72
2019-03-13T22:13:54.687Z,4.69
2019-03-13T22:16:42.982Z,4.61
2019-03-13T22:19:31.499Z,4.59
2019-03-13T22:22:19.789Z,4.46
2019-03-13T22:25:09.861Z,4.45
2019-03-13T22:27:58.706Z,4.40
2019-03-13T22:30:47.772Z,4.35
2019-03-13T22:33:36.561Z,4.39
2019-03-13T22:36:25.837Z,4.44
2019-03-13T22:39:14.214Z,4.47
2019-03-13T22:42:04.859Z,4.47
2019-03-13T22:44:53.542Z,4.37
2019-03-13T22:47:43.270Z,4.38
2019-03-13T22:50:32.485Z,4.35
2019-03-13T22:53:21.495Z,4.30
2019-03-13T22:56:10.361Z,4.20
2019-03-13T22:58:59.092Z,4.20
2019-03-13T23:01:47.604Z,4.19
2019-03-13T23:04:36.404Z,4.25
2019-03-13T23:07:25.498Z,4.34
2019-03-13T23:10:31.120Z,4.44
2019-03-13T23:13:19.909Z,4.43
2019-03-13T23:16:08.773Z,4.50
2019-03-13T23:18:57.379Z,4.48
2019-03-13T23:21:46.089Z,4.54
2019-03-13T23:24:37.944Z,4.62
2019-03-13T23:27:25.640Z,4.66
2019-03-13T23:30:14.083Z,4.68
2019-03-13T23:33:02.869Z,4.69
2019-03-13T23:35:51.666Z,4.67
2019-03-13T23:38:39.989Z,4.64
2019-03-13T23:41:28.756Z,4.71
2019-03-13T23:44:17.319Z,4.71
2019-03-13T23:47:05.971Z,4.71
2019-03-13T23:49:54.560Z,4.75
2019-03-13T23:52:43.817Z,4.75
2019-03-13T23:55:32.213Z,4.73
2019-03-13T23:58:21.011Z,4.71
